createdAt,value
2022-10-02T00:00:20.573Z,101507.25
2022-10-02T00:02:50.581Z,101511.56
2022-10-02T00:05:20.247Z,101509.94
2022-10-02T00:07:52.046Z,101511.00
2022-10-02T00:10:31.531Z,101522.84
2022-10-02T00:13:03.280Z,101526.03
2022-10-02T00:15:32.301Z,101530.06
2022-10-02T00:18:04.509Z,101526.28
2022-10-02T00:20:58.633Z,101529.47
2022-10-02T00:23:33.456Z,101539.44
2022-10-02T00:26:09.443Z,101549.13
2022-10-02T00:28:58.749Z,101568.41
2022-10-02T00:31:31.120Z,101578.38
2022-10-02T00:34:05.382Z,101579.47
2022-10-02T00:36:56.585Z,101562.31
2022-10-02T00:39:47.291Z,101569.31
2022-10-02T00:42:45.713Z,101580.94
2022-10-02T00:45:45.183Z,101577.72
2022-10-02T00:48:34.663Z,101587.41
2022-10-02T00:51:14.365Z,101574.75
2022-10-02T00:54:19.087Z,101577.44
2022-10-02T00:57:11.714Z,101573.09
2022-10-02T00:59:57.075Z,101569.03
2022-10-02T01:02:26.357Z,101572.25
2022-10-02T01:04:54.376Z,101572.78
2022-10-02T01:07:21.610Z,101574.09
2022-10-02T01:09:48.297Z,101568.16
2022-10-02T01:12:14.925Z,101565.44
2022-10-02T01:14:41.840Z,101553.88
2022-10-02T01:17:30.624Z,101556.03
2022-10-02T01:19:59.420Z,101560.84
2022-10-02T01:22:49.140Z,101566.75
2022-10-02T01:25:15.744Z,101557.34
2022-10-02T01:27:42.934Z,101560.53
2022-10-02T01:30:12.416Z,101559.19
2022-10-02T01:32:44.052Z,101562.13
2022-10-02T01:35:10.793Z,101564.00
2022-10-02T01:37:41.312Z,101554.06
2022-10-02T01:40:11.031Z,101559.69
2022-10-02T01:42:38.826Z,101572.84
2022-10-02T01:45:06.823Z,101566.69
2022-10-02T01:47:43.992Z,101567.47
2022-10-02T01:50:28.912Z,101580.13
2022-10-02T01:53:25.575Z,101574.75
2022-10-02T01:56:27.316Z,101578.22
2022-10-02T01:59:17.366Z,101580.34
2022-10-02T02:02:12.215Z,101582.25
2022-10-02T02:04:46.365Z,101579.00
2022-10-02T02:07:28.504Z,101579.56
2022-10-02T02:10:18.326Z,101581.47
2022-10-02T02:13:04.478Z,101582.25
2022-10-02T02:15:42.983Z,101588.47
2022-10-02T02:18:33.541Z,101586.06
2022-10-02T02:21:08.863Z,101575.31
2022-10-02T02:23:38.952Z,101574.25
2022-10-02T02:26:12.220Z,101580.44
2022-10-02T02:28:45.004Z,101575.59
2022-10-02T02:31:16.546Z,101580.41
2022-10-02T02:33:47.848Z,101578.22
2022-10-02T02:36:18.484Z,101578.22
2022-10-02T02:38:57.707Z,101576.88
2022-10-02T02:41:28.200Z,101578.75
2022-10-02T02:44:14.755Z,101584.66
2022-10-02T02:47:11.166Z,101581.75
2022-10-02T02:50:00.122Z,101585.22
2022-10-02T02:52:31.103Z,101580.41
2022-10-02T02:55:07.772Z,101584.19
2022-10-02T02:57:43.566Z,101579.91
2022-10-02T03:00:15.572Z,101585.84
2022-10-02T03:02:42.315Z,101584.75
2022-10-02T03:05:14.799Z,101581.81
2022-10-02T03:07:56.720Z,101591.19
2022-10-02T03:10:35.520Z,101590.41
2022-10-02T03:13:14.947Z,101581.81
2022-10-02T03:15:50.279Z,101580.50
2022-10-02T03:18:38.397Z,101574.56
2022-10-02T03:21:14.535Z,101571.34
2022-10-02T03:23:58.445Z,101580.72
2022-10-02T03:26:37.317Z,101579.34
2022-10-02T03:29:10.659Z,101587.94
2022-10-02T03:31:37.481Z,101584.16
2022-10-02T03:34:05.247Z,101593.56
2022-10-02T03:36:31.692Z,101595.16
2022-10-02T03:39:23.743Z,101605.38
2022-10-02T03:41:48.476Z,101599.75
2022-10-02T03:44:14.808Z,101606.22
2022-10-02T03:46:41.263Z,101599.78
2022-10-02T03:49:07.664Z,101605.97
2022-10-02T03:51:34.025Z,101609.72
2022-10-02T03:54:00.426Z,101615.66
2022-10-02T03:56:36.731Z,101617.28
2022-10-02T03:59:10.536Z,101619.69
2022-10-02T04:01:46.887Z,101611.63
2022-10-02T04:04:21.417Z,101612.97
2022-10-02T04:06:51.814Z,101610.78
2022-10-02T04:10:04.266Z,101620.69
2022-10-02T04:12:40.103Z,101616.91
2022-10-02T04:15:20.469Z,101624.94
2022-10-02T04:18:03.024Z,101625.19
2022-10-02T04:20:41.594Z,101622.47
2022-10-02T04:23:25.828Z,101615.16
2022-10-02T04:25:59.864Z,101620.53
2022-10-02T04:28:35.136Z,101625.63
2022-10-02T04:31:02.701Z,101629.91
2022-10-02T04:33:29.417Z,101632.81
2022-10-02T04:36:06.330Z,101632.59
2022-10-02T04:38:35.503Z,101636.34
2022-10-02T04:41:08.022Z,101637.38
2022-10-02T04:43:57.758Z,101635.72
2022-10-02T04:46:42.830Z,101644.53
2022-10-02T04:49:09.116Z,101652.03
2022-10-02T04:51:47.675Z,101645.81
2022-10-02T04:54:29.341Z,101645.78
2022-10-02T04:57:20.120Z,101639.28
2022-10-02T05:00:10.935Z,101651.59
2022-10-02T05:03:05.961Z,101646.72
2022-10-02T05:06:00.213Z,101643.25
2022-10-02T05:08:35.573Z,101645.91
2022-10-02T05:11:04.764Z,101650.78
2022-10-02T05:13:56.037Z,101654.53
2022-10-02T05:16:55.904Z,101643.03
2022-10-02T05:20:07.492Z,101660.78
2022-10-02T05:22:55.728Z,101675.84
2022-10-02T05:25:24.704Z,101691.44
2022-10-02T05:28:12.489Z,101693.13
2022-10-02T05:30:49.714Z,101682.72
2022-10-02T05:33:34.833Z,101693.00
2022-10-02T05:36:25.668Z,101697.63
2022-10-02T05:39:07.225Z,101700.59
2022-10-02T05:41:50.360Z,101702.78
2022-10-02T05:44:22.149Z,101704.91
2022-10-02T05:47:01.403Z,101709.47
2022-10-02T05:49:37.865Z,101705.16
2022-10-02T05:52:11.657Z,101691.97
2022-10-02T05:54:44.309Z,101690.34
2022-10-02T05:57:21.308Z,101693.56
2022-10-02T06:00:06.550Z,101691.13
2022-10-02T06:02:57.067Z,101688.69
2022-10-02T06:05:41.487Z,101685.19
2022-10-02T06:08:14.213Z,101689.50
2022-10-02T06:10:48.807Z,101689.25
2022-10-02T06:13:30.287Z,101697.88
2022-10-02T06:16:14.596Z,101701.38
2022-10-02T06:18:46.332Z,101706.47
2022-10-02T06:21:31.272Z,101700.84
2022-10-02T06:24:04.692Z,101705.97
2022-10-02T06:26:38.326Z,101712.16
2022-10-02T06:29:15.999Z,101719.69
2022-10-02T06:31:54.658Z,101724.31
2022-10-02T06:34:22.483Z,101729.44
2022-10-02T06:37:22.032Z,101733.22
2022-10-02T06:40:06.523Z,101729.47
2022-10-02T06:42:53.032Z,101730.34
2022-10-02T06:45:39.079Z,101742.16
2022-10-02T06:48:22.216Z,101744.66
2022-10-02T06:51:08.752Z,101759.78
2022-10-02T06:53:46.143Z,101758.72
2022-10-02T06:56:31.212Z,101768.44
2022-10-02T06:59:16.308Z,101756.13
2022-10-02T07:01:56.405Z,101760.97
2022-10-02T07:04:45.033Z,101765.31
2022-10-02T07:07:49.756Z,101770.22
2022-10-02T07:10:37.372Z,101765.94
2022-10-02T07:13:19.907Z,101767.06
2022-10-02T07:16:09.255Z,101768.97
2022-10-02T07:19:00.817Z,101775.19
2022-10-02T07:21:49.316Z,101776.28
2022-10-02T07:24:42.198Z,101784.94
2022-10-02T07:27:38.856Z,101784.19
2022-10-02T07:30:09.064Z,101791.47
2022-10-02T07:32:49.028Z,101796.06
2022-10-02T07:35:21.956Z,101797.97
2022-10-02T07:38:03.184Z,101799.88
2022-10-02T07:40:46.292Z,101804.78
2022-10-02T07:43:27.397Z,101805.59
2022-10-02T07:46:20.272Z,101802.38
2022-10-02T07:49:14.281Z,101804.81
2022-10-02T07:51:51.424Z,101805.69
2022-10-02T07:54:26.915Z,101810.56
2022-10-02T07:56:56.972Z,101803.59
2022-10-02T07:59:23.621Z,101810.13
2022-10-02T08:01:51.066Z,101822.03
2022-10-02T08:04:31.359Z,101819.91
2022-10-02T08:07:03.723Z,101817.47
2022-10-02T08:09:53.249Z,101819.91
2022-10-02T08:12:53.724Z,101831.53
2022-10-02T08:15:22.305Z,101823.44
2022-10-02T08:17:52.689Z,101833.97
2022-10-02T08:20:33.944Z,101838.84
2022-10-02T08:23:04.143Z,101838.81
2022-10-02T08:25:38.972Z,101836.94
2022-10-02T08:28:16.627Z,101839.09
2022-10-02T08:30:43.188Z,101848.00
2022-10-02T08:33:17.869Z,101846.88
2022-10-02T08:36:04.573Z,101852.03
2022-10-02T08:38:40.364Z,101857.41
2022-10-02T08:41:49.164Z,101863.53
2022-10-02T08:44:40.837Z,101876.66
2022-10-02T08:47:19.318Z,101871.53
2022-10-02T08:50:04.470Z,101877.13
2022-10-02T08:53:04.210Z,101881.38
2022-10-02T08:55:58.937Z,101879.53
2022-10-02T08:58:39.251Z,101887.41
2022-10-02T09:01:50.739Z,101895.19
2022-10-02T09:04:28.165Z,101897.53
2022-10-02T09:07:03.233Z,101893.09
2022-10-02T09:10:07.143Z,101892.97
2022-10-02T09:13:02.612Z,101889.91
2022-10-02T09:15:40.273Z,101892.97
2022-10-02T09:18:15.676Z,101895.34
2022-10-02T09:20:55.192Z,101894.09
2022-10-02T09:23:36.764Z,101904.53
2022-10-02T09:26:18.979Z,101911.88
2022-10-02T09:29:09.412Z,101922.41
2022-10-02T09:31:57.654Z,101918.66
2022-10-02T09:34:30.085Z,101917.94
2022-10-02T09:37:40.697Z,101917.75
2022-10-02T09:40:34.246Z,101920.25
2022-10-02T09:43:18.115Z,101920.97
2022-10-02T09:46:06.690Z,101919.78
2022-10-02T09:48:54.933Z,101921.22
2022-10-02T09:51:46.353Z,101922.66
2022-10-02T09:54:29.672Z,101918.38
2022-10-02T09:57:17.613Z,101918.00
2022-10-02T10:00:17.654Z,101924.03
2022-10-02T10:03:19.538Z,101920.41
2022-10-02T10:06:16.340Z,101926.19
2022-10-02T10:09:01.292Z,101937.94
2022-10-02T10:11:56.432Z,101932.16
2022-10-02T10:14:50.557Z,101935.88
2022-10-02T10:17:39.016Z,101941.47
2022-10-02T10:20:12.497Z,101935.91
2022-10-02T10:22:44.861Z,101944.00
2022-10-02T10:25:37.529Z,101950.78
2022-10-02T10:28:25.968Z,101946.22
2022-10-02T10:31:16.807Z,101944.88
2022-10-02T10:33:52.314Z,101954.63
2022-10-02T10:36:55.539Z,101964.53
2022-10-02T10:39:49.467Z,101958.22
2022-10-02T10:42:37.777Z,101966.63
2022-10-02T10:45:26.345Z,101971.44
2022-10-02T10:48:31.205Z,101964.81
2022-10-02T10:51:14.112Z,101977.03
2022-10-02T10:54:00.997Z,101973.81
2022-10-02T10:56:50.138Z,101978.91
2022-10-02T10:59:42.283Z,101990.41
2022-10-02T11:02:24.098Z,101998.81
2022-10-02T11:05:06.119Z,102012.22
2022-10-02T11:07:39.259Z,102011.00
2022-10-02T11:10:28.585Z,102011.97
2022-10-02T11:13:13.560Z,102014.81
2022-10-02T11:16:06.546Z,102012.13
2022-10-02T11:18:48.226Z,102011.56
2022-10-02T11:21:45.154Z,102019.19
2022-10-02T11:24:29.783Z,102014.25
2022-10-02T11:27:38.293Z,102016.59
2022-10-02T11:30:24.148Z,102017.44
2022-10-02T11:33:08.745Z,102029.47
2022-10-02T11:35:52.562Z,102028.97
2022-10-02T11:38:35.418Z,102031.19
2022-10-02T11:41:04.790Z,102038.06
2022-10-02T11:43:43.904Z,102035.97
2022-10-02T11:46:45.471Z,102037.09
2022-10-02T11:49:27.048Z,102032.56
2022-10-02T11:52:00.274Z,102042.34
2022-10-02T11:54:50.679Z,102026.44
2022-10-02T11:57:19.882Z,102034.13
2022-10-02T12:00:13.968Z,102033.75
2022-10-02T12:03:01.697Z,102027.25
2022-10-02T12:05:46.606Z,102031.03
2022-10-02T12:08:19.972Z,102029.88
2022-10-02T12:10:52.769Z,102035.19
2022-10-02T12:13:45.175Z,102035.28
2022-10-02T12:16:52.323Z,102029.28
2022-10-02T12:19:39.535Z,102035.00
2022-10-02T12:23:03.615Z,102041.91
2022-10-02T12:26:14.285Z,102049.78
2022-10-02T12:29:14.441Z,102050.47
2022-10-02T12:31:58.983Z,102061.16
2022-10-02T12:34:58.173Z,102056.09
2022-10-02T12:37:48.302Z,102052.91
2022-10-02T12:40:21.261Z,102058.13
2022-10-02T12:43:19.362Z,102058.28
2022-10-02T12:46:23.303Z,102064.75
2022-10-02T12:49:12.282Z,102060.59
2022-10-02T12:52:00.911Z,102062.94
2022-10-02T12:54:59.785Z,102064.94
2022-10-02T12:57:58.698Z,102064.03
2022-10-02T13:00:53.931Z,102060.94
2022-10-02T13:04:07.156Z,102073.94
2022-10-02T13:06:46.534Z,102070.53
2022-10-02T13:09:12.828Z,102072.81
2022-10-02T13:12:00.868Z,102074.06
2022-10-02T13:14:52.289Z,102068.09
2022-10-02T13:17:25.377Z,102071.28
2022-10-02T13:20:30.028Z,102070.53
2022-10-02T13:22:58.107Z,102072.41
2022-10-02T13:25:39.588Z,102073.84
2022-10-02T13:28:13.579Z,102074.63
2022-10-02T13:30:53.320Z,102078.16
2022-10-02T13:33:53.037Z,102080.38
2022-10-02T13:36:35.055Z,102086.63
2022-10-02T13:39:04.042Z,102085.34
2022-10-02T13:41:47.522Z,102094.97
2022-10-02T13:44:26.117Z,102099.69
2022-10-02T13:47:04.526Z,102101.22
2022-10-02T13:50:15.308Z,102106.09
2022-10-02T13:53:05.313Z,102101.69
2022-10-02T13:55:41.961Z,102103.13
2022-10-02T13:58:28.367Z,102103.00
2022-10-02T14:01:16.193Z,102099.66
2022-10-02T14:03:54.353Z,102102.09
2022-10-02T14:06:58.552Z,102111.88
2022-10-02T14:09:27.896Z,102111.31
2022-10-02T14:12:00.923Z,102114.50
2022-10-02T14:14:56.082Z,102110.06
2022-10-02T14:17:35.907Z,102112.78
2022-10-02T14:20:23.529Z,102114.78
2022-10-02T14:22:55.728Z,102118.41
2022-10-02T14:25:35.875Z,102107.75
2022-10-02T14:28:44.202Z,102111.81
2022-10-02T14:31:40.450Z,102124.44
2022-10-02T14:34:25.047Z,102130.94
2022-10-02T14:37:28.988Z,102126.41
2022-10-02T14:40:00.565Z,102127.38
2022-10-02T14:43:18.447Z,102130.38
2022-10-02T14:46:03.229Z,102128.44
2022-10-02T14:48:45.991Z,102135.25
2022-10-02T14:51:45.600Z,102144.16
2022-10-02T14:54:29.784Z,102151.06
2022-10-02T14:57:29.863Z,102153.50
2022-10-02T15:00:04.674Z,102152.53
2022-10-02T15:02:55.956Z,102155.16
2022-10-02T15:05:37.482Z,102158.81
2022-10-02T15:08:14.104Z,102160.03
2022-10-02T15:10:42.288Z,102167.09
2022-10-02T15:13:37.355Z,102164.75
2022-10-02T15:16:38.768Z,102181.09
2022-10-02T15:19:40.325Z,102169.66
2022-10-02T15:22:27.139Z,102174.50
2022-10-02T15:25:17.814Z,102175.44
2022-10-02T15:28:31.498Z,102184.97
2022-10-02T15:31:22.998Z,102185.56
2022-10-02T15:34:03.908Z,102189.38
2022-10-02T15:36:48.975Z,102191.06
2022-10-02T15:39:27.275Z,102196.53
2022-10-02T15:42:04.572Z,102203.06
2022-10-02T15:44:52.092Z,102196.84
2022-10-02T15:47:38.110Z,102207.69
2022-10-02T15:50:40.771Z,102213.41
2022-10-02T15:53:54.472Z,102216.44
2022-10-02T15:56:32.649Z,102231.38
2022-10-02T15:59:17.978Z,102232.22
2022-10-02T16:01:53.705Z,102239.03
2022-10-02T16:04:29.576Z,102242.28
2022-10-02T16:07:14.484Z,102246.06
2022-10-02T16:09:54.561Z,102249.84
2022-10-02T16:12:36.995Z,102250.69
2022-10-02T16:15:16.147Z,102256.38
2022-10-02T16:18:04.000Z,102259.38
2022-10-02T16:20:46.071Z,102262.34
2022-10-02T16:23:30.345Z,102266.94
2022-10-02T16:26:12.437Z,102264.50
2022-10-02T16:29:03.267Z,102275.81
2022-10-02T16:32:03.192Z,102281.78
2022-10-02T16:34:59.657Z,102276.63
2022-10-02T16:37:37.994Z,102293.63
2022-10-02T16:40:23.141Z,102293.09
2022-10-02T16:43:12.766Z,102297.97
2022-10-02T16:45:52.130Z,102309.53
2022-10-02T16:48:29.310Z,102302.50
2022-10-02T16:51:14.128Z,102308.38
2022-10-02T16:53:48.476Z,102312.16
2022-10-02T16:56:32.512Z,102317.78
2022-10-02T16:59:08.196Z,102325.34
2022-10-02T17:02:13.113Z,102327.44
2022-10-02T17:04:46.785Z,102333.09
2022-10-02T17:07:45.291Z,102344.13
2022-10-02T17:10:24.540Z,102346.25
2022-10-02T17:12:56.055Z,102353.69
2022-10-02T17:15:38.925Z,102356.28
2022-10-02T17:18:17.195Z,102363.75
2022-10-02T17:20:49.771Z,102368.78
2022-10-02T17:23:39.491Z,102370.28
2022-10-02T17:26:11.780Z,102376.97
2022-10-02T17:28:51.643Z,102371.72
2022-10-02T17:31:36.648Z,102387.53
2022-10-02T17:34:20.994Z,102384.25
2022-10-02T17:36:53.843Z,102389.25
2022-10-02T17:39:38.377Z,102403.16
2022-10-02T17:42:39.539Z,102407.38
2022-10-02T17:45:26.379Z,102416.09
2022-10-02T17:48:04.437Z,102418.72
2022-10-02T17:50:44.672Z,102417.84
2022-10-02T17:53:44.677Z,102424.47
2022-10-02T17:56:49.908Z,102432.56
2022-10-02T17:59:40.624Z,102427.41
2022-10-02T18:02:22.126Z,102428.72
2022-10-02T18:05:11.753Z,102433.72
2022-10-02T18:08:03.057Z,102439.53
2022-10-02T18:10:39.376Z,102453.16
2022-10-02T18:13:25.927Z,102456.25
2022-10-02T18:16:17.956Z,102458.75
2022-10-02T18:19:37.166Z,102461.53
2022-10-02T18:22:17.738Z,102458.19
2022-10-02T18:25:02.723Z,102466.19
2022-10-02T18:27:32.062Z,102468.75
2022-10-02T18:30:29.985Z,102467.28
2022-10-02T18:33:27.235Z,102465.56
2022-10-02T18:36:15.212Z,102468.47
2022-10-02T18:38:41.476Z,102470.25
2022-10-02T18:41:45.700Z,102467.13
2022-10-02T18:44:33.406Z,102476.97
2022-10-02T18:47:28.781Z,102477.13
2022-10-02T18:50:22.752Z,102483.44
2022-10-02T18:52:58.178Z,102476.09
2022-10-02T18:55:39.688Z,102487.19
2022-10-02T18:58:07.803Z,102492.69
2022-10-02T19:01:03.838Z,102501.72
2022-10-02T19:03:50.058Z,102493.78
2022-10-02T19:06:32.792Z,102503.81
2022-10-02T19:09:08.581Z,102507.22
2022-10-02T19:11:46.192Z,102497.75
2022-10-02T19:14:15.349Z,102500.44
2022-10-02T19:16:57.022Z,102510.59
2022-10-02T19:19:24.362Z,102509.66
2022-10-02T19:21:57.246Z,102518.88
2022-10-02T19:24:30.629Z,102516.06
2022-10-02T19:27:04.654Z,102522.84
2022-10-02T19:29:41.653Z,102522.72
2022-10-02T19:32:18.305Z,102533.09
2022-10-02T19:34:48.676Z,102527.13
2022-10-02T19:37:18.144Z,102536.47
2022-10-02T19:39:54.994Z,102548.94
2022-10-02T19:42:25.922Z,102545.31
2022-10-02T19:45:02.737Z,102543.94
2022-10-02T19:47:50.183Z,102547.28
2022-10-02T19:50:23.199Z,102557.53
2022-10-02T19:52:57.347Z,102554.69
2022-10-02T19:55:32.199Z,102557.03
2022-10-02T19:58:38.207Z,102560.59
2022-10-02T20:01:06.844Z,102550.56
2022-10-02T20:03:33.955Z,102551.97
2022-10-02T20:06:12.126Z,102556.28
2022-10-02T20:08:44.838Z,102563.78
2022-10-02T20:11:15.142Z,102563.19
2022-10-02T20:13:53.403Z,102564.22
2022-10-02T20:16:43.391Z,102570.47
2022-10-02T20:19:17.974Z,102572.78
2022-10-02T20:21:52.788Z,102574.66
2022-10-02T20:24:37.245Z,102568.47
2022-10-02T20:27:15.090Z,102572.00
2022-10-02T20:29:47.137Z,102570.56
2022-10-02T20:32:24.032Z,102578.84
2022-10-02T20:34:57.256Z,102580.91
2022-10-02T20:37:29.452Z,102580.97
2022-10-02T20:40:21.507Z,102583.72
2022-10-02T20:42:54.973Z,102583.56
2022-10-02T20:45:28.005Z,102593.13
2022-10-02T20:48:55.570Z,102601.00
2022-10-02T20:52:05.872Z,102607.84
2022-10-02T20:54:42.245Z,102610.38
2022-10-02T20:57:43.115Z,102613.72
2022-10-02T21:00:20.977Z,102616.84
2022-10-02T21:03:24.334Z,102626.16
2022-10-02T21:06:46.181Z,102633.41
2022-10-02T21:09:30.604Z,102637.13
2022-10-02T21:12:29.832Z,102645.00
2022-10-02T21:15:27.427Z,102646.25
2022-10-02T21:18:32.929Z,102651.25
2022-10-02T21:21:19.279Z,102655.38
2022-10-02T21:24:19.019Z,102658.94
2022-10-02T21:27:06.893Z,102658.78
2022-10-02T21:29:43.895Z,102660.03
2022-10-02T21:32:24.997Z,102660.25
2022-10-02T21:35:16.575Z,102669.53
2022-10-02T21:38:10.054Z,102673.25
2022-10-02T21:40:58.099Z,102679.63
2022-10-02T21:43:43.101Z,102680.50
2022-10-02T21:46:33.845Z,102687.31
2022-10-02T21:49:37.527Z,102692.28
2022-10-02T21:52:22.170Z,102694.19
2022-10-02T21:55:13.442Z,102694.00
2022-10-02T21:58:18.895Z,102702.31
2022-10-02T22:01:07.677Z,102694.31
2022-10-02T22:04:02.009Z,102702.53
2022-10-02T22:06:54.622Z,102701.09
2022-10-02T22:09:36.976Z,102708.75
2022-10-02T22:12:20.529Z,102703.19
2022-10-02T22:14:53.719Z,102706.09
2022-10-02T22:17:40.837Z,102707.31
2022-10-02T22:20:31.842Z,102711.03
2022-10-02T22:23:03.199Z,102709.38
2022-10-02T22:25:59.568Z,102703.44
2022-10-02T22:28:37.903Z,102707.34
2022-10-02T22:31:20.964Z,102709.63
2022-10-02T22:33:58.866Z,102706.56
2022-10-02T22:36:36.358Z,102717.03
2022-10-02T22:39:10.790Z,102712.72
2022-10-02T22:41:49.737Z,102716.00
2022-10-02T22:44:51.696Z,102715.81
2022-10-02T22:47:17.958Z,102720.75
2022-10-02T22:49:57.629Z,102726.31
2022-10-02T22:52:48.888Z,102727.97
2022-10-02T22:55:21.444Z,102730.03
2022-10-02T22:58:02.300Z,102730.44
2022-10-02T23:00:49.127Z,102727.75
2022-10-02T23:03:28.948Z,102731.47
2022-10-02T23:06:06.572Z,102722.63
2022-10-02T23:08:47.289Z,102720.38
2022-10-02T23:11:19.340Z,102725.31
2022-10-02T23:14:00.860Z,102731.50
2022-10-02T23:16:41.215Z,102722.44
2022-10-02T23:19:18.331Z,102727.59
2022-10-02T23:21:53.079Z,102726.38
2022-10-02T23:24:29.683Z,102724.50
2022-10-02T23:27:04.932Z,102724.72
2022-10-02T23:29:53.875Z,102734.38
2022-10-02T23:32:35.378Z,102732.97
2022-10-02T23:35:28.458Z,102736.66
2022-10-02T23:38:11.913Z,102736.03
2022-10-02T23:41:32.619Z,102736.84
2022-10-02T23:44:11.340Z,102735.19
2022-10-02T23:46:49.763Z,102731.50
2022-10-02T23:49:22.850Z,102727.81
2022-10-02T23:51:55.048Z,102728.03
2022-10-02T23:54:39.763Z,102729.88
2022-10-02T23:57:43.811Z,102740.56
